createdAt,value
2023-04-30T00:01:56.085Z,79.96
2023-04-30T00:04:22.624Z,80.39
2023-04-30T00:06:49.040Z,80.48
2023-04-30T00:09:15.378Z,80.54
2023-04-30T00:11:41.707Z,80.56
2023-04-30T00:14:08.094Z,80.71
2023-04-30T00:16:34.497Z,80.79
2023-04-30T00:19:01.177Z,81.78
2023-04-30T00:21:27.813Z,81.25
2023-04-30T00:23:54.232Z,81.20
2023-04-30T00:26:20.617Z,80.99
2023-04-30T00:28:47.074Z,80.81
2023-04-30T00:31:13.402Z,80.55
2023-04-30T00:33:39.704Z,80.21
2023-04-30T00:36:06.121Z,80.01
2023-04-30T00:38:32.436Z,80.21
2023-04-30T00:40:58.901Z,79.25
2023-04-30T00:43:25.485Z,78.83
2023-04-30T00:45:51.825Z,78.30
2023-04-30T00:48:18.391Z,78.40
2023-04-30T00:50:45.077Z,77.84
2023-04-30T00:53:12.087Z,77.46
2023-04-30T00:55:39.202Z,77.01
2023-04-30T00:58:05.863Z,76.86
2023-04-30T01:00:32.269Z,76.48
2023-04-30T01:02:58.806Z,76.37
2023-04-30T01:05:25.985Z,76.05
2023-04-30T01:07:53.360Z,75.92
2023-04-30T01:10:19.706Z,75.87
2023-04-30T01:12:53.590Z,76.06
2023-04-30T01:15:28.143Z,76.13
2023-04-30T01:18:10.196Z,76.16
2023-04-30T01:20:39.139Z,75.99
2023-04-30T01:23:18.843Z,76.08
2023-04-30T01:25:53.519Z,76.22
2023-04-30T01:28:20.623Z,76.30
2023-04-30T01:30:47.470Z,76.50
2023-04-30T01:33:14.003Z,76.68
2023-04-30T01:35:40.442Z,76.62
2023-04-30T01:38:36.062Z,76.97
2023-04-30T01:41:10.713Z,77.42
2023-04-30T01:43:47.450Z,77.54
2023-04-30T01:46:28.712Z,77.73
2023-04-30T01:49:04.380Z,78.78
2023-04-30T01:51:32.814Z,79.33
2023-04-30T01:54:03.336Z,79.91
2023-04-30T01:56:38.311Z,80.08
2023-04-30T01:59:05.589Z,80.79
2023-04-30T02:01:32.722Z,80.91
2023-04-30T02:03:59.542Z,81.38
2023-04-30T02:06:28.438Z,81.65
2023-04-30T02:09:06.959Z,81.89
2023-04-30T02:11:33.296Z,82.11
2023-04-30T02:13:59.662Z,82.38
2023-04-30T02:16:26.003Z,82.69
2023-04-30T02:18:52.391Z,82.89
2023-04-30T02:21:18.800Z,83.14
2023-04-30T02:23:45.142Z,82.93
2023-04-30T02:26:11.465Z,82.52
2023-04-30T02:28:37.968Z,82.43
2023-04-30T02:31:04.306Z,82.68
2023-04-30T02:33:30.712Z,82.72
2023-04-30T02:35:58.976Z,83.12
2023-04-30T02:38:25.298Z,83.73
2023-04-30T02:40:51.761Z,82.77
2023-04-30T02:43:18.092Z,82.59
2023-04-30T02:45:44.438Z,82.52
2023-04-30T02:48:10.923Z,82.59
2023-04-30T02:50:37.272Z,82.38
2023-04-30T02:53:03.593Z,82.55
2023-04-30T02:55:30.434Z,82.82
2023-04-30T02:57:56.847Z,83.01
2023-04-30T03:00:23.285Z,83.34
2023-04-30T03:02:49.680Z,83.40
2023-04-30T03:05:16.243Z,84.50
2023-04-30T03:07:42.575Z,84.39
2023-04-30T03:10:09.272Z,83.97
2023-04-30T03:12:35.619Z,84.40
2023-04-30T03:15:02.022Z,84.55
2023-04-30T03:17:28.444Z,84.29
2023-04-30T03:19:55.117Z,84.44
2023-04-30T03:22:23.785Z,85.17
2023-04-30T03:24:50.152Z,85.54
2023-04-30T03:27:16.997Z,85.38
2023-04-30T03:29:43.325Z,85.19
2023-04-30T03:32:09.654Z,85.71
2023-04-30T03:34:36.000Z,86.50
2023-04-30T03:37:02.344Z,87.02
2023-04-30T03:39:28.674Z,87.21
2023-04-30T03:41:55.034Z,87.26
2023-04-30T03:44:21.390Z,87.23
2023-04-30T03:46:47.738Z,87.54
2023-04-30T03:49:14.106Z,87.43
2023-04-30T03:51:41.882Z,88.00
2023-04-30T03:54:08.800Z,88.59
2023-04-30T03:56:36.024Z,88.90
2023-04-30T03:59:02.636Z,88.54
2023-04-30T04:01:29.457Z,89.19
2023-04-30T04:03:55.915Z,89.43
2023-04-30T04:06:22.626Z,89.43
2023-04-30T04:08:49.045Z,89.41
2023-04-30T04:11:15.415Z,88.88
2023-04-30T04:13:41.767Z,88.51
2023-04-30T04:16:08.920Z,87.65
2023-04-30T04:18:35.340Z,87.37
2023-04-30T04:21:01.834Z,87.24
2023-04-30T04:23:28.219Z,87.74
2023-04-30T04:25:54.547Z,87.47
2023-04-30T04:28:21.357Z,87.16
2023-04-30T04:30:47.676Z,87.35
2023-04-30T04:33:14.694Z,87.20
2023-04-30T04:35:41.102Z,86.96
2023-04-30T04:38:07.484Z,87.07
2023-04-30T04:40:35.478Z,86.77
2023-04-30T04:43:01.850Z,86.61
2023-04-30T04:45:28.314Z,87.01
2023-04-30T04:47:54.787Z,87.01
2023-04-30T04:50:21.175Z,86.73
2023-04-30T04:52:47.567Z,86.58
2023-04-30T04:55:14.245Z,86.49
2023-04-30T04:57:41.967Z,86.88
2023-04-30T05:00:10.264Z,86.94
2023-04-30T05:02:36.694Z,86.78
2023-04-30T05:05:03.198Z,86.67
2023-04-30T05:07:29.968Z,86.74
2023-04-30T05:09:57.003Z,86.73
2023-04-30T05:12:23.481Z,86.81
2023-04-30T05:14:51.272Z,86.44
2023-04-30T05:17:17.703Z,86.19
2023-04-30T05:19:44.237Z,85.92
2023-04-30T05:22:10.839Z,84.44
2023-04-30T05:24:37.157Z,81.89
2023-04-30T05:27:05.092Z,78.53
2023-04-30T05:29:31.988Z,77.29
2023-04-30T05:31:58.521Z,77.43
2023-04-30T05:34:25.217Z,74.47
2023-04-30T05:36:51.561Z,73.56
2023-04-30T05:39:17.891Z,71.21
2023-04-30T05:41:44.338Z,71.16
2023-04-30T05:44:10.820Z,69.24
2023-04-30T05:46:37.254Z,68.29
2023-04-30T05:49:03.655Z,68.39
2023-04-30T05:51:30.037Z,68.76
2023-04-30T05:53:57.586Z,67.10
2023-04-30T05:56:24.911Z,65.60
2023-04-30T05:58:52.551Z,65.47
2023-04-30T06:01:23.148Z,64.87
2023-04-30T06:03:49.561Z,64.78
2023-04-30T06:06:16.008Z,63.88
2023-04-30T06:08:45.247Z,63.23
2023-04-30T06:11:12.602Z,63.61
2023-04-30T06:13:39.343Z,63.90
2023-04-30T06:16:06.551Z,65.85
2023-04-30T06:18:32.981Z,65.82
2023-04-30T06:20:59.315Z,68.83
2023-04-30T06:23:25.791Z,70.33
2023-04-30T06:25:52.130Z,70.58
2023-04-30T06:28:18.476Z,71.28
2023-04-30T06:30:44.834Z,72.17
2023-04-30T06:33:11.420Z,73.00
2023-04-30T06:35:37.754Z,73.37
2023-04-30T06:38:04.234Z,73.00
2023-04-30T06:40:30.553Z,73.56
2023-04-30T06:42:56.894Z,72.50
2023-04-30T06:45:23.253Z,71.78
2023-04-30T06:47:49.861Z,71.36
2023-04-30T06:50:16.310Z,71.27
2023-04-30T06:52:42.880Z,69.62
2023-04-30T06:55:09.474Z,67.55
2023-04-30T06:57:37.500Z,65.88
2023-04-30T07:00:07.363Z,66.22
2023-04-30T07:02:33.856Z,65.16
2023-04-30T07:05:00.338Z,67.57
2023-04-30T07:07:27.042Z,68.44
2023-04-30T07:09:53.795Z,68.58
2023-04-30T07:12:20.522Z,69.32
2023-04-30T07:14:46.844Z,67.31
2023-04-30T07:17:13.605Z,66.60
2023-04-30T07:19:39.933Z,65.28
2023-04-30T07:22:06.265Z,63.43
2023-04-30T07:24:32.587Z,64.72
2023-04-30T07:27:02.805Z,63.93
2023-04-30T07:29:29.551Z,62.93
2023-04-30T07:31:56.756Z,63.31
2023-04-30T07:34:23.443Z,64.42
2023-04-30T07:36:49.890Z,63.63
2023-04-30T07:39:16.977Z,62.78
2023-04-30T07:41:43.466Z,62.74
2023-04-30T07:44:11.650Z,62.71
2023-04-30T07:46:38.202Z,63.93
2023-04-30T07:49:04.660Z,64.33
2023-04-30T07:51:32.889Z,64.19
2023-04-30T07:54:00.912Z,65.56
2023-04-30T07:56:27.361Z,66.21
2023-04-30T07:58:53.692Z,65.67
2023-04-30T08:01:20.062Z,65.10
2023-04-30T08:03:46.618Z,64.58
2023-04-30T08:06:13.112Z,64.95
2023-04-30T08:08:39.790Z,66.15
2023-04-30T08:11:06.582Z,61.83
2023-04-30T08:13:33.033Z,61.97
2023-04-30T08:15:59.475Z,64.06
2023-04-30T08:18:25.863Z,62.62
2023-04-30T08:20:52.205Z,64.39
2023-04-30T08:23:18.610Z,62.50
2023-04-30T08:25:44.973Z,64.72
2023-04-30T08:28:11.450Z,61.83
2023-04-30T08:30:37.807Z,62.31
2023-04-30T08:33:04.289Z,62.18
2023-04-30T08:35:30.820Z,61.04
2023-04-30T08:37:57.298Z,62.20
2023-04-30T08:40:38.309Z,62.29
2023-04-30T08:43:11.620Z,62.99
2023-04-30T08:45:38.247Z,62.41
2023-04-30T08:48:05.198Z,60.92
2023-04-30T08:50:31.790Z,62.61
2023-04-30T08:52:58.866Z,63.29
2023-04-30T08:55:26.960Z,61.47
2023-04-30T08:57:53.385Z,60.68
2023-04-30T09:00:20.475Z,60.74
2023-04-30T09:02:48.260Z,60.90
2023-04-30T09:05:15.400Z,61.91
2023-04-30T09:07:48.976Z,61.97
2023-04-30T09:10:25.187Z,63.11
2023-04-30T09:13:02.576Z,60.90
2023-04-30T09:15:30.013Z,60.03
2023-04-30T09:18:17.687Z,57.87
2023-04-30T09:20:56.501Z,59.51
2023-04-30T09:23:22.877Z,56.72
2023-04-30T09:25:49.370Z,57.38
2023-04-30T09:28:15.985Z,56.65
2023-04-30T09:30:42.657Z,57.58
2023-04-30T09:33:12.004Z,57.14
2023-04-30T09:35:41.582Z,58.26
2023-04-30T09:38:08.534Z,57.41
2023-04-30T09:40:39.117Z,55.65
2023-04-30T09:43:06.453Z,54.94
2023-04-30T09:45:49.897Z,56.23
2023-04-30T09:48:17.905Z,54.33
2023-04-30T09:50:47.678Z,53.91
2023-04-30T09:53:14.793Z,54.19
2023-04-30T09:55:45.185Z,52.88
2023-04-30T09:58:12.544Z,54.12
2023-04-30T10:00:39.715Z,54.34
2023-04-30T10:03:11.033Z,55.16
2023-04-30T10:05:38.800Z,52.17
2023-04-30T10:08:07.150Z,51.73
2023-04-30T10:10:33.721Z,53.19
2023-04-30T10:13:05.870Z,51.85
2023-04-30T10:15:39.836Z,53.14
2023-04-30T10:18:07.369Z,51.69
2023-04-30T10:20:36.047Z,50.90
2023-04-30T10:23:02.521Z,53.38
2023-04-30T10:25:29.038Z,51.73
2023-04-30T10:27:55.838Z,48.40
2023-04-30T10:30:22.489Z,47.96
2023-04-30T10:32:53.209Z,47.28
2023-04-30T10:35:22.420Z,46.70
2023-04-30T10:37:53.706Z,48.07
2023-04-30T10:40:20.034Z,49.16
2023-04-30T10:42:47.870Z,47.73
2023-04-30T10:45:15.813Z,48.48
2023-04-30T10:47:42.746Z,50.60
2023-04-30T10:50:09.510Z,47.11
2023-04-30T10:52:37.990Z,49.12
2023-04-30T10:55:05.390Z,49.01
2023-04-30T10:57:31.924Z,46.82
2023-04-30T11:00:07.139Z,47.41
2023-04-30T11:02:44.147Z,45.99
2023-04-30T11:05:11.720Z,48.30
2023-04-30T11:07:46.054Z,46.93
2023-04-30T11:10:16.657Z,49.33
2023-04-30T11:12:50.486Z,47.23
2023-04-30T11:15:18.354Z,47.79
2023-04-30T11:17:52.669Z,48.47
2023-04-30T11:20:20.758Z,46.64
2023-04-30T11:22:59.931Z,46.92
2023-04-30T11:25:27.230Z,47.38
2023-04-30T11:27:56.327Z,45.63
2023-04-30T11:30:23.272Z,45.13
2023-04-30T11:32:49.871Z,45.53
2023-04-30T11:35:18.309Z,44.10
2023-04-30T11:37:45.330Z,44.56
2023-04-30T11:40:14.906Z,43.23
2023-04-30T11:42:45.918Z,43.79
2023-04-30T11:45:14.003Z,44.80
2023-04-30T11:47:48.136Z,43.77
2023-04-30T11:50:19.228Z,44.06
2023-04-30T11:52:49.913Z,44.42
2023-04-30T11:55:17.062Z,43.78
2023-04-30T11:57:44.705Z,44.31
2023-04-30T12:00:12.163Z,42.74
2023-04-30T12:02:39.660Z,44.52
2023-04-30T12:05:12.566Z,44.93
2023-04-30T12:07:39.365Z,44.41
2023-04-30T12:10:06.006Z,44.81
2023-04-30T12:12:32.399Z,45.88
2023-04-30T12:14:59.364Z,45.16
2023-04-30T12:17:32.933Z,44.07
2023-04-30T12:19:59.331Z,42.89
2023-04-30T12:22:25.889Z,43.68
2023-04-30T12:24:52.228Z,42.41
2023-04-30T12:27:18.568Z,40.97
2023-04-30T12:29:46.581Z,41.82
2023-04-30T12:32:16.241Z,41.12
2023-04-30T12:34:42.768Z,38.91
2023-04-30T12:37:09.198Z,37.46
2023-04-30T12:39:35.929Z,39.66
2023-04-30T12:42:03.489Z,38.13
2023-04-30T12:44:29.862Z,38.71
2023-04-30T12:46:57.671Z,37.87
2023-04-30T12:49:28.148Z,37.58
2023-04-30T12:52:02.313Z,38.99
2023-04-30T12:54:29.800Z,37.44
2023-04-30T12:57:07.604Z,38.77
2023-04-30T12:59:38.158Z,38.81
2023-04-30T13:02:13.972Z,37.99
2023-04-30T13:04:41.090Z,38.61
2023-04-30T13:07:07.538Z,38.52
2023-04-30T13:09:34.590Z,35.18
2023-04-30T13:12:01.244Z,37.34
2023-04-30T13:14:27.573Z,37.02
2023-04-30T13:16:54.074Z,36.35
2023-04-30T13:19:20.546Z,38.61
2023-04-30T13:21:46.967Z,36.01
2023-04-30T13:24:13.401Z,35.40
2023-04-30T13:26:40.188Z,34.30
2023-04-30T13:29:06.541Z,35.66
2023-04-30T13:31:33.014Z,35.41
2023-04-30T13:33:59.378Z,35.78
2023-04-30T13:36:25.731Z,37.22
2023-04-30T13:38:52.401Z,36.62
2023-04-30T13:41:18.753Z,38.75
2023-04-30T13:43:46.380Z,36.86
2023-04-30T13:46:12.996Z,36.56
2023-04-30T13:48:39.411Z,36.38
2023-04-30T13:51:05.762Z,37.74
2023-04-30T13:53:32.396Z,37.77
2023-04-30T13:55:59.380Z,38.32
2023-04-30T13:58:26.173Z,38.67
2023-04-30T14:00:52.514Z,37.31
2023-04-30T14:03:19.081Z,37.26
2023-04-30T14:05:45.667Z,37.57
2023-04-30T14:08:12.873Z,39.50
2023-04-30T14:10:39.210Z,37.17
2023-04-30T14:13:05.669Z,37.63
2023-04-30T14:15:32.707Z,39.91
2023-04-30T14:18:00.573Z,37.75
2023-04-30T14:20:27.514Z,39.09
2023-04-30T14:22:53.867Z,39.33
2023-04-30T14:25:20.615Z,37.13
2023-04-30T14:27:47.677Z,38.56
2023-04-30T14:30:14.361Z,37.94
2023-04-30T14:32:40.755Z,37.43
2023-04-30T14:35:07.499Z,38.17
2023-04-30T14:37:33.868Z,38.85
2023-04-30T14:40:01.966Z,38.27
2023-04-30T14:42:28.379Z,39.47
2023-04-30T14:44:54.715Z,39.70
2023-04-30T14:47:21.569Z,37.86
2023-04-30T14:49:50.231Z,39.55
2023-04-30T14:52:16.613Z,38.54
2023-04-30T14:54:43.399Z,37.37
2023-04-30T14:57:09.736Z,39.73
2023-04-30T14:59:36.157Z,39.07
2023-04-30T15:02:02.582Z,39.45
2023-04-30T15:04:28.956Z,37.85
2023-04-30T15:06:55.589Z,37.67
2023-04-30T15:09:21.931Z,38.52
2023-04-30T15:11:48.742Z,39.45
2023-04-30T15:14:17.267Z,39.46
2023-04-30T15:16:43.679Z,38.80
2023-04-30T15:19:10.230Z,38.49
2023-04-30T15:21:36.561Z,37.96
2023-04-30T15:24:03.293Z,38.50
2023-04-30T15:26:29.693Z,38.16
2023-04-30T15:28:56.821Z,38.44
2023-04-30T15:31:23.264Z,38.91
2023-04-30T15:33:49.636Z,38.77
2023-04-30T15:36:16.113Z,38.04
2023-04-30T15:38:42.478Z,38.00
2023-04-30T15:41:08.807Z,38.41
2023-04-30T15:43:35.232Z,38.54
2023-04-30T15:46:01.712Z,37.88
2023-04-30T15:48:28.107Z,38.03
2023-04-30T15:50:56.383Z,36.96
2023-04-30T15:53:22.749Z,37.26
2023-04-30T15:55:49.679Z,38.05
2023-04-30T15:58:16.338Z,35.90
2023-04-30T16:00:42.733Z,37.45
2023-04-30T16:03:09.275Z,38.00
2023-04-30T16:05:38.720Z,37.49
2023-04-30T16:08:05.828Z,38.03
2023-04-30T16:10:32.382Z,38.80
2023-04-30T16:12:58.779Z,36.84
2023-04-30T16:15:25.346Z,38.34
2023-04-30T16:17:52.135Z,38.61
2023-04-30T16:20:18.536Z,38.36
2023-04-30T16:22:44.879Z,38.67
2023-04-30T16:25:12.027Z,37.77
2023-04-30T16:27:38.667Z,37.94
2023-04-30T16:30:05.817Z,38.52
2023-04-30T16:32:32.379Z,40.19
2023-04-30T16:34:59.081Z,37.63
2023-04-30T16:37:26.526Z,37.29
2023-04-30T16:39:53.139Z,37.29
2023-04-30T16:42:19.743Z,38.43
2023-04-30T16:44:46.249Z,37.97
2023-04-30T16:47:12.685Z,38.58
2023-04-30T16:49:39.622Z,38.12
2023-04-30T16:52:05.961Z,37.95
2023-04-30T16:54:32.294Z,38.97
2023-04-30T16:56:58.646Z,38.91
2023-04-30T16:59:24.979Z,39.07
2023-04-30T17:01:51.365Z,38.66
2023-04-30T17:04:17.792Z,39.27
2023-04-30T17:06:44.249Z,41.12
2023-04-30T17:09:10.725Z,40.90
2023-04-30T17:11:37.095Z,40.66
2023-04-30T17:14:03.504Z,38.86
2023-04-30T17:16:30.027Z,40.17
2023-04-30T17:18:56.485Z,40.80
2023-04-30T17:21:22.810Z,40.24
2023-04-30T17:23:49.163Z,40.70
2023-04-30T17:26:15.519Z,40.74
2023-04-30T17:28:42.343Z,41.14
2023-04-30T17:31:09.361Z,40.86
2023-04-30T17:33:35.780Z,41.77
2023-04-30T17:36:02.172Z,41.89
2023-04-30T17:38:28.832Z,42.26
2023-04-30T17:40:56.759Z,41.77
2023-04-30T17:43:23.635Z,42.71
2023-04-30T17:45:52.098Z,43.11
2023-04-30T17:48:19.097Z,43.21
2023-04-30T17:50:46.335Z,43.76
2023-04-30T17:53:12.784Z,44.20
2023-04-30T17:55:39.453Z,44.70
2023-04-30T17:58:10.050Z,44.86
2023-04-30T18:00:38.414Z,45.41
2023-04-30T18:03:08.280Z,46.64
2023-04-30T18:05:35.769Z,47.10
2023-04-30T18:08:02.485Z,47.39
2023-04-30T18:10:28.923Z,47.22
2023-04-30T18:12:57.268Z,48.21
2023-04-30T18:15:23.582Z,48.95
2023-04-30T18:17:49.992Z,49.50
2023-04-30T18:20:16.459Z,49.64
2023-04-30T18:22:43.662Z,49.74
2023-04-30T18:25:11.161Z,50.30
2023-04-30T18:27:37.583Z,50.49
2023-04-30T18:30:04.181Z,50.74
2023-04-30T18:32:30.640Z,50.95
2023-04-30T18:34:58.083Z,51.42
2023-04-30T18:37:24.870Z,51.83
2023-04-30T18:39:51.664Z,52.37
2023-04-30T18:42:18.087Z,53.31
2023-04-30T18:44:44.402Z,53.57
2023-04-30T18:47:11.367Z,54.08
2023-04-30T18:49:38.708Z,54.16
2023-04-30T18:52:05.120Z,54.38
2023-04-30T18:54:31.542Z,54.12
2023-04-30T18:56:58.420Z,54.40
2023-04-30T18:59:27.363Z,54.82
2023-04-30T19:01:54.775Z,55.49
2023-04-30T19:04:21.453Z,56.06
2023-04-30T19:06:52.143Z,56.44
2023-04-30T19:09:18.632Z,56.56
2023-04-30T19:11:44.978Z,56.84
2023-04-30T19:14:11.719Z,56.92
2023-04-30T19:16:38.127Z,57.09
2023-04-30T19:19:04.529Z,57.65
2023-04-30T19:21:32.380Z,57.55
2023-04-30T19:23:58.752Z,57.83
2023-04-30T19:26:27.734Z,58.10
2023-04-30T19:28:54.072Z,59.05
2023-04-30T19:31:20.499Z,59.16
2023-04-30T19:37:15.329Z,59.81
2023-04-30T19:39:41.616Z,60.23
2023-04-30T19:42:08.025Z,60.35
2023-04-30T19:44:34.365Z,60.51
2023-04-30T19:47:00.767Z,60.70
2023-04-30T19:49:27.169Z,60.79
2023-04-30T19:51:54.269Z,60.98
2023-04-30T19:54:20.628Z,61.02
2023-04-30T19:56:47.352Z,61.30
2023-04-30T19:59:14.152Z,61.61
2023-04-30T20:01:41.699Z,61.49
2023-04-30T20:04:08.273Z,61.62
2023-04-30T20:06:34.764Z,61.65
2023-04-30T20:09:01.346Z,62.01
2023-04-30T20:11:27.913Z,62.19
2023-04-30T20:13:54.773Z,62.51
2023-04-30T20:16:21.182Z,63.48
2023-04-30T20:18:47.938Z,63.51
2023-04-30T20:21:14.894Z,63.85
2023-04-30T20:23:41.451Z,64.50
2023-04-30T20:26:08.279Z,64.44
2023-04-30T20:28:34.661Z,64.75
2023-04-30T20:31:01.522Z,65.14
2023-04-30T20:33:29.001Z,65.32
2023-04-30T20:35:58.066Z,65.51
2023-04-30T20:38:24.406Z,65.72
2023-04-30T20:40:51.063Z,65.96
2023-04-30T20:43:17.438Z,66.40
2023-04-30T20:45:44.464Z,66.09
2023-04-30T20:48:10.905Z,65.30
2023-04-30T20:50:37.619Z,65.44
2023-04-30T20:53:03.984Z,65.54
2023-04-30T20:55:30.332Z,65.82
2023-04-30T20:57:56.894Z,66.88
2023-04-30T21:00:26.100Z,67.43
2023-04-30T21:02:53.829Z,68.59
2023-04-30T21:05:20.370Z,68.76
2023-04-30T21:07:46.718Z,68.70
2023-04-30T21:10:13.085Z,69.62
2023-04-30T21:12:39.428Z,69.35
2023-04-30T21:15:05.928Z,69.51
2023-04-30T21:17:32.304Z,69.79
2023-04-30T21:20:00.375Z,70.25
2023-04-30T21:22:26.804Z,70.08
2023-04-30T21:24:53.715Z,70.13
2023-04-30T21:27:20.532Z,70.21
2023-04-30T21:29:47.196Z,70.32
2023-04-30T21:32:13.538Z,70.28
2023-04-30T21:34:39.844Z,70.23
2023-04-30T21:37:06.433Z,70.64
2023-04-30T21:39:32.760Z,71.11
2023-04-30T21:41:59.880Z,71.03
2023-04-30T21:44:26.268Z,71.12
2023-04-30T21:46:52.722Z,71.63
2023-04-30T21:49:19.037Z,71.57
2023-04-30T21:51:45.352Z,72.06
2023-04-30T21:54:11.792Z,71.92
2023-04-30T21:56:39.257Z,72.14
2023-04-30T21:59:05.671Z,71.97
2023-04-30T22:01:32.085Z,72.14
2023-04-30T22:03:58.716Z,72.67
2023-04-30T22:06:25.240Z,72.54
2023-04-30T22:08:51.582Z,72.61
2023-04-30T22:11:18.402Z,73.08
2023-04-30T22:13:44.707Z,73.43
2023-04-30T22:16:11.546Z,73.37
2023-04-30T22:18:37.980Z,72.94
2023-04-30T22:21:04.353Z,73.61
2023-04-30T22:23:30.673Z,73.58
2023-04-30T22:25:56.958Z,73.58
2023-04-30T22:28:23.512Z,73.22
2023-04-30T22:30:49.836Z,74.96
2023-04-30T22:33:16.262Z,74.12
2023-04-30T22:35:42.819Z,73.22
2023-04-30T22:38:09.378Z,73.94
2023-04-30T22:40:39.270Z,74.57
2023-04-30T22:43:05.905Z,74.60
2023-04-30T22:45:32.754Z,75.02
2023-04-30T22:48:01.489Z,74.64
2023-04-30T22:50:28.237Z,74.14
2023-04-30T22:52:56.256Z,74.12
2023-04-30T22:55:22.710Z,73.99
2023-04-30T22:57:49.164Z,74.14
2023-04-30T23:00:15.707Z,74.50
2023-04-30T23:02:43.763Z,73.98
2023-04-30T23:05:10.150Z,74.22
2023-04-30T23:07:36.464Z,74.52
2023-04-30T23:10:05.060Z,74.32
2023-04-30T23:12:31.459Z,75.38
2023-04-30T23:14:57.819Z,75.13
2023-04-30T23:17:24.188Z,74.97
2023-04-30T23:19:50.531Z,75.22
2023-04-30T23:22:17.081Z,75.15
2023-04-30T23:24:43.436Z,75.52
2023-04-30T23:27:09.763Z,75.38
2023-04-30T23:29:36.567Z,75.37
2023-04-30T23:32:04.313Z,75.46
2023-04-30T23:34:30.698Z,75.87
2023-04-30T23:36:57.119Z,76.33
2023-04-30T23:39:24.448Z,76.21
2023-04-30T23:41:52.198Z,76.29
2023-04-30T23:44:18.752Z,76.58
2023-04-30T23:46:45.233Z,76.68
2023-04-30T23:49:11.621Z,76.50
2023-04-30T23:51:38.045Z,76.41
2023-04-30T23:54:05.829Z,76.96
2023-04-30T23:56:33.392Z,76.75
2023-04-30T23:58:59.690Z,76.74
